Terminal Aerodrome Forecast
Issued by NWS

Home | Current Version | Previous Version | Text Only | Print | Product List | Glossary On
Versions: 1 2 3 4 5 6 7 8 9 10 11 12 13 14 15
961
FTUS45 KRIW 300528
TAFJAC
TAF
KJAC 300528Z 3006/3106 20011KT P6SM VCSH SCT025 OVC035
      TEMPO 3006/3009 -RA OVC025
     FM301000 20009KT 6SM -RA SCT014 OVC022
     FM302200 VRB05KT P6SM -RA SCT012 OVC024
     FM310100 36010KT P6SM VCSH SCT024 OVC040
      AMD LTD TO CLD VIS AND WIND=

USA.gov is the U.S. government's official web portal to all federal, state and local government web resources and services.